sensor_id;sensor_type;location;lat;lon;timestamp;pressure;altitude;pressure_sealevel;temperature;humidity
2339;BME280;1180;51.438;6.978;2022-08-18T00:02:22;99938.88;;;22.88;91.43
2339;BME280;1180;51.438;6.978;2022-08-18T00:04:50;99934.97;;;22.99;90.74
2339;BME280;1180;51.438;6.978;2022-08-18T00:07:24;99942.66;;;23.01;90.61
2339;BME280;1180;51.438;6.978;2022-08-18T00:09:50;99937.53;;;22.92;91.47
2339;BME280;1180;51.438;6.978;2022-08-18T00:12:21;99938.94;;;22.95;91.73
2339;BME280;1180;51.438;6.978;2022-08-18T00:14:47;99945.75;;;22.89;92.15
2339;BME280;1180;51.438;6.978;2022-08-18T00:17:14;99949.50;;;22.87;92.70
2339;BME280;1180;51.438;6.978;2022-08-18T00:19:39;99955.00;;;22.92;91.96
2339;BME280;1180;51.438;6.978;2022-08-18T00:22:05;99950.97;;;22.89;92.09
2339;BME280;1180;51.438;6.978;2022-08-18T00:24:31;99949.59;;;22.78;92.84
2339;BME280;1180;51.438;6.978;2022-08-18T00:26:57;99946.53;;;22.75;92.97
2339;BME280;1180;51.438;6.978;2022-08-18T00:29:23;99950.75;;;22.76;92.74
2339;BME280;1180;51.438;6.978;2022-08-18T00:31:49;99954.38;;;22.75;92.83
2339;BME280;1180;51.438;6.978;2022-08-18T00:34:15;99959.25;;;22.78;92.79
2339;BME280;1180;51.438;6.978;2022-08-18T00:36:40;99955.81;;;22.77;92.74
2339;BME280;1180;51.438;6.978;2022-08-18T00:39:06;99964.09;;;22.81;92.52
2339;BME280;1180;51.438;6.978;2022-08-18T00:41:32;99964.31;;;22.79;92.57
2339;BME280;1180;51.438;6.978;2022-08-18T00:43:57;99964.81;;;22.75;93.15
2339;BME280;1180;51.438;6.978;2022-08-18T00:46:27;99960.78;;;22.72;93.42
2339;BME280;1180;51.438;6.978;2022-08-18T00:48:55;99953.72;;;22.73;94.12
2339;BME280;1180;51.438;6.978;2022-08-18T00:51:41;99962.47;;;22.65;94.66
2339;BME280;1180;51.438;6.978;2022-08-18T00:54:13;99954.63;;;22.65;94.97
2339;BME280;1180;51.438;6.978;2022-08-18T00:56:52;99955.16;;;22.60;95.08
2339;BME280;1180;51.438;6.978;2022-08-18T00:59:27;99956.31;;;22.58;95.72
2339;BME280;1180;51.438;6.978;2022-08-18T01:01:57;99956.31;;;22.58;95.72
2339;BME280;1180;51.438;6.978;2022-08-18T01:04:40;99955.53;;;22.57;95.97
2339;BME280;1180;51.438;6.978;2022-08-18T01:07:19;99951.09;;;22.58;95.95
2339;BME280;1180;51.438;6.978;2022-08-18T01:09:48;99950.00;;;22.52;96.05
2339;BME280;1180;51.438;6.978;2022-08-18T01:12:15;99955.06;;;22.54;96.41
2339;BME280;1180;51.438;6.978;2022-08-18T01:14:41;99945.41;;;22.54;96.28
2339;BME280;1180;51.438;6.978;2022-08-18T01:17:06;99943.75;;;22.53;95.78
2339;BME280;1180;51.438;6.978;2022-08-18T01:19:52;99943.13;;;22.51;96.19
2339;BME280;1180;51.438;6.978;2022-08-18T01:23:00;99937.47;;;22.47;96.58
2339;BME280;1180;51.438;6.978;2022-08-18T01:25:29;99943.50;;;22.48;96.26
2339;BME280;1180;51.438;6.978;2022-08-18T01:28:14;99938.25;;;22.48;96.63
2339;BME280;1180;51.438;6.978;2022-08-18T01:30:48;99937.94;;;22.43;96.82
2339;BME280;1180;51.438;6.978;2022-08-18T01:33:15;99930.47;;;22.40;97.48
2339;BME280;1180;51.438;6.978;2022-08-18T01:35:45;99935.56;;;22.33;97.30
2339;BME280;1180;51.438;6.978;2022-08-18T01:38:14;99928.38;;;22.35;97.12
2339;BME280;1180;51.438;6.978;2022-08-18T01:40:40;99933.78;;;22.33;96.79
2339;BME280;1180;51.438;6.978;2022-08-18T01:43:07;99933.94;;;22.32;96.96
2339;BME280;1180;51.438;6.978;2022-08-18T01:45:32;99938.75;;;22.28;97.04
2339;BME280;1180;51.438;6.978;2022-08-18T01:47:58;99946.09;;;22.25;97.29
2339;BME280;1180;51.438;6.978;2022-08-18T01:50:24;99938.75;;;22.28;97.07
2339;BME280;1180;51.438;6.978;2022-08-18T01:52:50;99955.22;;;22.29;97.41
2339;BME280;1180;51.438;6.978;2022-08-18T01:55:18;99954.88;;;22.32;97.15
2339;BME280;1180;51.438;6.978;2022-08-18T01:57:44;99951.16;;;22.26;97.36
2339;BME280;1180;51.438;6.978;2022-08-18T02:00:14;99959.28;;;22.31;97.27
2339;BME280;1180;51.438;6.978;2022-08-18T02:02:41;99949.91;;;22.37;96.80
2339;BME280;1180;51.438;6.978;2022-08-18T02:05:11;99948.22;;;22.29;96.88
2339;BME280;1180;51.438;6.978;2022-08-18T02:07:38;99948.84;;;22.31;96.49
2339;BME280;1180;51.438;6.978;2022-08-18T02:10:06;99961.09;;;22.31;96.72
2339;BME280;1180;51.438;6.978;2022-08-18T02:12:34;99951.63;;;22.30;96.70
2339;BME280;1180;51.438;6.978;2022-08-18T02:15:00;99953.25;;;22.31;96.80
2339;BME280;1180;51.438;6.978;2022-08-18T02:17:25;99954.88;;;22.32;97.08
2339;BME280;1180;51.438;6.978;2022-08-18T02:19:51;99962.25;;;22.28;96.42
2339;BME280;1180;51.438;6.978;2022-08-18T02:22:19;99961.09;;;22.31;96.26
2339;BME280;1180;51.438;6.978;2022-08-18T02:24:44;99956.75;;;22.23;96.45
2339;BME280;1180;51.438;6.978;2022-08-18T02:27:11;99958.19;;;22.26;96.74
2339;BME280;1180;51.438;6.978;2022-08-18T02:29:37;99953.50;;;22.21;97.02
2339;BME280;1180;51.438;6.978;2022-08-18T02:32:04;99955.44;;;22.19;96.51
2339;BME280;1180;51.438;6.978;2022-08-18T02:34:29;99944.44;;;22.08;97.57
2339;BME280;1180;51.438;6.978;2022-08-18T02:36:55;99943.97;;;22.05;98.20
2339;BME280;1180;51.438;6.978;2022-08-18T02:39:20;99953.59;;;22.04;98.79
2339;BME280;1180;51.438;6.978;2022-08-18T02:41:46;99947.50;;;22.12;98.00
2339;BME280;1180;51.438;6.978;2022-08-18T02:44:12;99944.00;;;22.20;97.01
2339;BME280;1180;51.438;6.978;2022-08-18T02:46:37;99934.53;;;22.19;96.83
2339;BME280;1180;51.438;6.978;2022-08-18T02:49:04;99940.81;;;22.10;97.33
2339;BME280;1180;51.438;6.978;2022-08-18T02:51:32;99940.88;;;22.01;98.08
2339;BME280;1180;51.438;6.978;2022-08-18T02:53:57;99944.84;;;21.97;98.10
2339;BME280;1180;51.438;6.978;2022-08-18T02:56:27;99939.06;;;22.02;98.00
2339;BME280;1180;51.438;6.978;2022-08-18T02:58:58;99947.09;;;22.00;97.60
2339;BME280;1180;51.438;6.978;2022-08-18T03:01:27;99943.03;;;21.98;98.61
2339;BME280;1180;51.438;6.978;2022-08-18T03:03:54;99951.06;;;21.96;98.47
2339;BME280;1180;51.438;6.978;2022-08-18T03:06:20;99944.94;;;22.04;98.26
2339;BME280;1180;51.438;6.978;2022-08-18T03:08:46;99946.28;;;22.00;97.70
2339;BME280;1180;51.438;6.978;2022-08-18T03:11:15;99953.47;;;21.98;97.79
2339;BME280;1180;51.438;6.978;2022-08-18T03:13:41;99950.81;;;22.06;97.47
2339;BME280;1180;51.438;6.978;2022-08-18T03:16:07;99948.38;;;22.04;97.86
2339;BME280;1180;51.438;6.978;2022-08-18T03:18:32;99954.44;;;22.05;97.53
2339;BME280;1180;51.438;6.978;2022-08-18T03:21:05;99944.63;;;22.07;97.32
2339;BME280;1180;51.438;6.978;2022-08-18T03:23:30;99956.84;;;22.06;97.25
2339;BME280;1180;51.438;6.978;2022-08-18T03:25:55;99949.84;;;22.07;97.37
2339;BME280;1180;51.438;6.978;2022-08-18T03:28:21;99941.81;;;22.08;97.36
2339;BME280;1180;51.438;6.978;2022-08-18T03:30:47;99937.56;;;22.07;96.88
2339;BME280;1180;51.438;6.978;2022-08-18T03:33:12;99938.84;;;22.12;96.89
2339;BME280;1180;51.438;6.978;2022-08-18T03:35:37;99945.53;;;22.14;96.50
2339;BME280;1180;51.438;6.978;2022-08-18T03:38:03;99935.47;;;22.03;97.04
2339;BME280;1180;51.438;6.978;2022-08-18T03:40:29;99937.63;;;21.99;97.14
2339;BME280;1180;51.438;6.978;2022-08-18T03:42:54;99938.97;;;21.95;97.71
2339;BME280;1180;51.438;6.978;2022-08-18T03:45:20;99942.94;;;21.91;98.79
2339;BME280;1180;51.438;6.978;2022-08-18T03:47:46;99952.50;;;21.99;98.11
2339;BME280;1180;51.438;6.978;2022-08-18T03:50:15;99944.66;;;21.99;98.14
2339;BME280;1180;51.438;6.978;2022-08-18T03:52:44;99947.19;;;21.84;98.85
2339;BME280;1180;51.438;6.978;2022-08-18T03:55:13;99944.97;;;21.72;99.03
2339;BME280;1180;51.438;6.978;2022-08-18T03:57:40;99950.97;;;21.81;98.85
2339;BME280;1180;51.438;6.978;2022-08-18T04:00:06;99948.88;;;21.76;98.70
2339;BME280;1180;51.438;6.978;2022-08-18T04:02:34;99949.06;;;21.75;98.99
2339;BME280;1180;51.438;6.978;2022-08-18T04:04:59;99946.59;;;21.73;99.48
2339;BME280;1180;51.438;6.978;2022-08-18T04:07:25;99947.53;;;21.81;99.28
2339;BME280;1180;51.438;6.978;2022-08-18T04:09:50;99952.75;;;21.81;99.27
2339;BME280;1180;51.438;6.978;2022-08-18T04:12:15;99944.91;;;21.89;98.84
2339;BME280;1180;51.438;6.978;2022-08-18T04:14:42;99946.75;;;22.03;98.06
2339;BME280;1180;51.438;6.978;2022-08-18T04:17:08;99957.78;;;22.14;97.25
2339;BME280;1180;51.438;6.978;2022-08-18T04:19:34;99959.66;;;22.28;96.15
2339;BME280;1180;51.438;6.978;2022-08-18T04:22:01;99952.00;;;22.42;95.39
2339;BME280;1180;51.438;6.978;2022-08-18T04:24:28;99959.47;;;22.53;94.25
2339;BME280;1180;51.438;6.978;2022-08-18T04:26:56;99956.16;;;22.59;94.06
2339;BME280;1180;51.438;6.978;2022-08-18T04:29:22;99946.22;;;22.55;94.09
2339;BME280;1180;51.438;6.978;2022-08-18T04:31:49;99951.91;;;22.58;93.81
2339;BME280;1180;51.438;6.978;2022-08-18T04:34:16;99957.44;;;22.63;93.70
2339;BME280;1180;51.438;6.978;2022-08-18T04:36:43;99953.97;;;22.63;93.17
2339;BME280;1180;51.438;6.978;2022-08-18T04:39:11;99947.41;;;22.67;93.00
2339;BME280;1180;51.438;6.978;2022-08-18T04:41:37;99945.34;;;22.62;93.14
2339;BME280;1180;51.438;6.978;2022-08-18T04:44:05;99945.25;;;22.71;92.49
2339;BME280;1180;51.438;6.978;2022-08-18T04:46:38;99946.97;;;22.63;92.86
2339;BME280;1180;51.438;6.978;2022-08-18T04:49:04;99957.44;;;22.63;92.62
2339;BME280;1180;51.438;6.978;2022-08-18T04:51:29;99948.19;;;22.53;92.55
2339;BME280;1180;51.438;6.978;2022-08-18T04:53:56;99951.16;;;22.49;92.83
2339;BME280;1180;51.438;6.978;2022-08-18T04:56:31;99958.88;;;22.43;93.32
2339;BME280;1180;51.438;6.978;2022-08-18T04:59:11;99956.88;;;22.45;93.55
2339;BME280;1180;51.438;6.978;2022-08-18T05:01:42;99961.16;;;22.46;93.88
2339;BME280;1180;51.438;6.978;2022-08-18T05:04:10;99963.25;;;22.50;94.00
2339;BME280;1180;51.438;6.978;2022-08-18T05:06:38;99968.28;;;22.52;93.93
2339;BME280;1180;51.438;6.978;2022-08-18T05:09:06;99973.19;;;22.55;93.89
2339;BME280;1180;51.438;6.978;2022-08-18T05:11:32;99973.47;;;22.60;93.58
2339;BME280;1180;51.438;6.978;2022-08-18T05:13:59;99975.72;;;22.63;93.38
2339;BME280;1180;51.438;6.978;2022-08-18T05:16:26;99981.94;;;22.62;93.19
2339;BME280;1180;51.438;6.978;2022-08-18T05:18:52;99978.34;;;22.63;93.32
2339;BME280;1180;51.438;6.978;2022-08-18T05:21:18;99983.66;;;22.70;93.27
2339;BME280;1180;51.438;6.978;2022-08-18T05:23:46;99989.38;;;22.74;92.69
2339;BME280;1180;51.438;6.978;2022-08-18T05:26:14;99992.44;;;22.77;92.53
2339;BME280;1180;51.438;6.978;2022-08-18T05:28:43;99993.59;;;22.75;92.42
2339;BME280;1180;51.438;6.978;2022-08-18T05:33:39;99993.31;;;22.70;93.09
2339;BME280;1180;51.438;6.978;2022-08-18T05:36:23;99993.78;;;22.73;93.68
2339;BME280;1180;51.438;6.978;2022-08-18T05:41:45;100000.28;;;22.77;93.37
2339;BME280;1180;51.438;6.978;2022-08-18T05:44:15;100003.00;;;22.84;93.11
2339;BME280;1180;51.438;6.978;2022-08-18T05:46:55;99995.97;;;22.85;93.15
2339;BME280;1180;51.438;6.978;2022-08-18T05:49:24;99995.25;;;22.91;92.75
2339;BME280;1180;51.438;6.978;2022-08-18T05:51:57;99989.22;;;22.90;92.77
2339;BME280;1180;51.438;6.978;2022-08-18T05:54:26;100001.94;;;22.93;92.56
2339;BME280;1180;51.438;6.978;2022-08-18T05:57:18;100005.81;;;22.98;92.29
2339;BME280;1180;51.438;6.978;2022-08-18T05:59:46;100001.13;;;23.08;91.36
2339;BME280;1180;51.438;6.978;2022-08-18T06:02:17;100010.81;;;23.22;90.92
2339;BME280;1180;51.438;6.978;2022-08-18T06:04:53;100014.38;;;23.30;89.79
2339;BME280;1180;51.438;6.978;2022-08-18T06:07:33;100017.59;;;23.32;89.76
2339;BME280;1180;51.438;6.978;2022-08-18T06:10:01;100018.88;;;23.36;89.43
2339;BME280;1180;51.438;6.978;2022-08-18T06:12:31;100018.25;;;23.34;89.54
2339;BME280;1180;51.438;6.978;2022-08-18T06:15:09;100018.78;;;23.29;90.17
2339;BME280;1180;51.438;6.978;2022-08-18T06:26:16;100030.16;;;22.98;92.24
2339;BME280;1180;51.438;6.978;2022-08-18T06:29:18;100037.81;;;22.85;93.40
2339;BME280;1180;51.438;6.978;2022-08-18T06:36:54;100039.56;;;22.69;95.26
2339;BME280;1180;51.438;6.978;2022-08-18T06:39:42;100043.72;;;22.63;95.45
2339;BME280;1180;51.438;6.978;2022-08-18T06:42:08;100049.41;;;22.67;95.71
2339;BME280;1180;51.438;6.978;2022-08-18T06:45:10;100051.94;;;22.60;96.21
2339;BME280;1180;51.438;6.978;2022-08-18T06:47:54;100058.16;;;22.59;96.58
2339;BME280;1180;51.438;6.978;2022-08-18T06:50:37;100057.88;;;22.69;96.07
2339;BME280;1180;51.438;6.978;2022-08-18T06:53:07;100056.38;;;22.75;95.54
2339;BME280;1180;51.438;6.978;2022-08-18T06:55:40;100055.66;;;22.81;95.10
2339;BME280;1180;51.438;6.978;2022-08-18T07:00:41;100052.47;;;22.94;94.49
2339;BME280;1180;51.438;6.978;2022-08-18T07:03:14;100063.41;;;22.98;94.47
2339;BME280;1180;51.438;6.978;2022-08-18T07:08:37;100062.78;;;23.11;94.13
2339;BME280;1180;51.438;6.978;2022-08-18T07:13:43;100061.44;;;23.15;94.05
2339;BME280;1180;51.438;6.978;2022-08-18T07:18:48;100055.13;;;23.24;93.30
2339;BME280;1180;51.438;6.978;2022-08-18T07:21:30;100057.75;;;23.24;93.50
2339;BME280;1180;51.438;6.978;2022-08-18T07:27:04;100063.75;;;23.33;93.05
2339;BME280;1180;51.438;6.978;2022-08-18T07:29:34;100062.84;;;23.41;93.04
2339;BME280;1180;51.438;6.978;2022-08-18T07:32:05;100060.66;;;23.44;92.96
2339;BME280;1180;51.438;6.978;2022-08-18T07:34:40;100060.94;;;23.49;92.80
2339;BME280;1180;51.438;6.978;2022-08-18T07:37:28;100052.38;;;23.56;92.50
2339;BME280;1180;51.438;6.978;2022-08-18T07:40:21;100058.69;;;23.61;92.38
2339;BME280;1180;51.438;6.978;2022-08-18T07:42:55;100060.75;;;23.66;92.35
2339;BME280;1180;51.438;6.978;2022-08-18T07:48:05;100049.53;;;23.72;92.58
2339;BME280;1180;51.438;6.978;2022-08-18T07:50:48;100054.31;;;23.84;92.19
2339;BME280;1180;51.438;6.978;2022-08-18T07:56:15;100048.25;;;23.98;91.49
2339;BME280;1180;51.438;6.978;2022-08-18T07:58:47;100044.63;;;23.99;91.23
2339;BME280;1180;51.438;6.978;2022-08-18T08:03:43;100045.16;;;23.94;92.55
2339;BME280;1180;51.438;6.978;2022-08-18T08:06:40;100047.78;;;23.94;90.51
2339;BME280;1180;51.438;6.978;2022-08-18T08:11:55;100041.59;;;23.65;92.42
2339;BME280;1180;51.438;6.978;2022-08-18T08:22:43;100049.56;;;23.42;94.29
2339;BME280;1180;51.438;6.978;2022-08-18T08:25:23;100053.38;;;23.40;94.52
2339;BME280;1180;51.438;6.978;2022-08-18T08:27:53;100050.81;;;23.31;95.53
2339;BME280;1180;51.438;6.978;2022-08-18T08:30:26;100063.75;;;23.33;95.31
2339;BME280;1180;51.438;6.978;2022-08-18T08:35:47;100076.94;;;23.25;96.81
2339;BME280;1180;51.438;6.978;2022-08-18T08:38:18;100079.81;;;23.30;96.74
2339;BME280;1180;51.438;6.978;2022-08-18T08:41:00;100070.34;;;23.29;97.06
2339;BME280;1180;51.438;6.978;2022-08-18T08:43:40;100065.09;;;23.29;97.74
2339;BME280;1180;51.438;6.978;2022-08-18T08:46:10;100066.38;;;23.33;97.15
2339;BME280;1180;51.438;6.978;2022-08-18T08:48:44;100066.38;;;23.33;96.80
2339;BME280;1180;51.438;6.978;2022-08-18T08:51:26;100074.84;;;23.35;96.60
2339;BME280;1180;51.438;6.978;2022-08-18T08:54:00;100070.72;;;23.41;96.19
2339;BME280;1180;51.438;6.978;2022-08-18T08:56:38;100074.22;;;23.48;96.27
2339;BME280;1180;51.438;6.978;2022-08-18T08:59:08;100079.56;;;23.55;96.26
2339;BME280;1180;51.438;6.978;2022-08-18T09:10:23;100083.44;;;24.04;93.16
2339;BME280;1180;51.438;6.978;2022-08-18T09:21:47;100076.78;;;24.66;90.52
2339;BME280;1180;51.438;6.978;2022-08-18T09:24:30;100075.97;;;24.66;88.41
2339;BME280;1180;51.438;6.978;2022-08-18T09:30:03;100076.31;;;24.78;83.20
2339;BME280;1180;51.438;6.978;2022-08-18T09:32:37;100076.31;;;24.78;81.53
2339;BME280;1180;51.438;6.978;2022-08-18T09:35:29;100068.38;;;24.71;81.20
2339;BME280;1180;51.438;6.978;2022-08-18T09:38:11;100073.41;;;24.73;82.41
2339;BME280;1180;51.438;6.978;2022-08-18T09:40:59;100077.66;;;24.74;84.14
2339;BME280;1180;51.438;6.978;2022-08-18T09:51:47;100077.84;;;24.94;80.10
2339;BME280;1180;51.438;6.978;2022-08-18T09:54:18;100086.78;;;25.00;80.40
2339;BME280;1180;51.438;6.978;2022-08-18T10:01:56;100082.06;;;24.88;79.58
2339;BME280;1180;51.438;6.978;2022-08-18T10:04:30;100081.47;;;24.93;79.55
2339;BME280;1180;51.438;6.978;2022-08-18T10:07:17;100085.63;;;25.09;80.16
2339;BME280;1180;51.438;6.978;2022-08-18T10:09:52;100083.50;;;25.19;77.40
2339;BME280;1180;51.438;6.978;2022-08-18T10:29:00;100080.28;;;25.52;74.97
2339;BME280;1180;51.438;6.978;2022-08-18T10:31:29;100076.28;;;25.63;74.37
2339;BME280;1180;51.438;6.978;2022-08-18T10:39:10;100076.25;;;25.57;71.40
2339;BME280;1180;51.438;6.978;2022-08-18T10:41:37;100070.28;;;25.76;72.04
2339;BME280;1180;51.438;6.978;2022-08-18T10:44:12;100069.16;;;25.99;71.61
2339;BME280;1180;51.438;6.978;2022-08-18T10:46:41;100075.84;;;26.08;69.47
2339;BME280;1180;51.438;6.978;2022-08-18T10:51:52;100077.75;;;25.79;71.31
2339;BME280;1180;51.438;6.978;2022-08-18T10:57:16;100079.72;;;25.35;72.46
2339;BME280;1180;51.438;6.978;2022-08-18T10:59:53;100074.53;;;25.42;73.28
2339;BME280;1180;51.438;6.978;2022-08-18T11:04:54;100075.13;;;25.73;71.01
2339;BME280;1180;51.438;6.978;2022-08-18T11:07:28;100078.19;;;25.83;71.69
2339;BME280;1180;51.438;6.978;2022-08-18T11:09:56;100072.75;;;25.91;71.15
2339;BME280;1180;51.438;6.978;2022-08-18T11:13:03;100072.22;;;26.03;70.94
2339;BME280;1180;51.438;6.978;2022-08-18T11:18:19;100063.94;;;25.57;71.19
2339;BME280;1180;51.438;6.978;2022-08-18T11:20:53;100063.75;;;25.65;72.50
2339;BME280;1180;51.438;6.978;2022-08-18T11:23:38;100062.25;;;24.86;73.65
2339;BME280;1180;51.438;6.978;2022-08-18T11:26:14;100046.56;;;24.27;75.97
2339;BME280;1180;51.438;6.978;2022-08-18T11:28:40;100056.19;;;24.20;76.16
2339;BME280;1180;51.438;6.978;2022-08-18T11:31:06;100049.69;;;23.86;77.23
2339;BME280;1180;51.438;6.978;2022-08-18T11:33:32;100054.22;;;23.92;78.12
2339;BME280;1180;51.438;6.978;2022-08-18T11:35:58;100065.19;;;23.65;79.10
2339;BME280;1180;51.438;6.978;2022-08-18T11:38:24;100052.16;;;23.87;79.29
2339;BME280;1180;51.438;6.978;2022-08-18T11:41:10;100060.53;;;24.13;78.03
2339;BME280;1180;51.438;6.978;2022-08-18T11:43:38;100060.63;;;23.89;78.50
2339;BME280;1180;51.438;6.978;2022-08-18T11:48:50;100056.63;;;23.57;79.62
2339;BME280;1180;51.438;6.978;2022-08-18T11:51:25;100050.81;;;23.46;80.50
2339;BME280;1180;51.438;6.978;2022-08-18T11:54:17;100048.13;;;23.55;80.49
2339;BME280;1180;51.438;6.978;2022-08-18T11:56:43;100048.28;;;23.68;80.91
2339;BME280;1180;51.438;6.978;2022-08-18T12:01:51;100060.94;;;23.64;81.08
2339;BME280;1180;51.438;6.978;2022-08-18T12:07:06;100063.44;;;24.03;79.10
2339;BME280;1180;51.438;6.978;2022-08-18T12:12:29;100048.00;;;24.51;77.93
2339;BME280;1180;51.438;6.978;2022-08-18T12:15:01;100045.94;;;24.69;75.90
2339;BME280;1180;51.438;6.978;2022-08-18T12:17:29;100037.13;;;24.55;76.93
2339;BME280;1180;51.438;6.978;2022-08-18T12:19:55;100039.69;;;24.48;76.35
2339;BME280;1180;51.438;6.978;2022-08-18T12:22:27;100040.31;;;24.50;76.08
2339;BME280;1180;51.438;6.978;2022-08-18T12:24:56;100035.50;;;24.32;75.89
2339;BME280;1180;51.438;6.978;2022-08-18T12:27:23;100036.31;;;24.11;77.15
2339;BME280;1180;51.438;6.978;2022-08-18T12:29:50;100036.81;;;24.21;76.65
2339;BME280;1180;51.438;6.978;2022-08-18T12:32:17;100039.69;;;24.26;76.43
2339;BME280;1180;51.438;6.978;2022-08-18T12:34:44;100041.28;;;24.71;75.94
2339;BME280;1180;51.438;6.978;2022-08-18T12:37:14;100053.34;;;25.15;74.26
2339;BME280;1180;51.438;6.978;2022-08-18T12:39:40;100053.38;;;25.50;73.76
2339;BME280;1180;51.438;6.978;2022-08-18T12:42:06;100062.22;;;25.78;71.82
2339;BME280;1180;51.438;6.978;2022-08-18T12:44:31;100062.88;;;26.00;71.44
2339;BME280;1180;51.438;6.978;2022-08-18T12:46:57;100067.56;;;26.12;70.30
2339;BME280;1180;51.438;6.978;2022-08-18T12:49:24;100064.19;;;26.24;69.65
2339;BME280;1180;51.438;6.978;2022-08-18T12:51:51;100076.78;;;26.36;69.52
2339;BME280;1180;51.438;6.978;2022-08-18T12:54:19;100083.06;;;26.48;69.44
2339;BME280;1180;51.438;6.978;2022-08-18T12:56:47;100086.69;;;26.61;68.57
2339;BME280;1180;51.438;6.978;2022-08-18T12:59:14;100081.88;;;26.71;68.47
2339;BME280;1180;51.438;6.978;2022-08-18T13:01:40;100080.22;;;26.77;68.42
2339;BME280;1180;51.438;6.978;2022-08-18T13:04:06;100084.69;;;26.83;67.55
2339;BME280;1180;51.438;6.978;2022-08-18T13:06:34;100085.94;;;26.87;67.43
2339;BME280;1180;51.438;6.978;2022-08-18T13:09:02;100068.72;;;26.91;66.31
2339;BME280;1180;51.438;6.978;2022-08-18T13:11:28;100049.69;;;26.89;66.56
2339;BME280;1180;51.438;6.978;2022-08-18T13:13:53;100050.06;;;26.93;65.12
2339;BME280;1180;51.438;6.978;2022-08-18T13:16:19;100052.69;;;27.00;65.66
2339;BME280;1180;51.438;6.978;2022-08-18T13:18:45;100049.66;;;27.09;65.49
2339;BME280;1180;51.438;6.978;2022-08-18T13:21:14;100040.94;;;27.09;63.34
2339;BME280;1180;51.438;6.978;2022-08-18T13:23:40;100029.16;;;27.25;64.26
2339;BME280;1180;51.438;6.978;2022-08-18T13:26:08;100027.94;;;27.28;64.48
2339;BME280;1180;51.438;6.978;2022-08-18T13:28:36;100031.72;;;27.45;64.51
2339;BME280;1180;51.438;6.978;2022-08-18T13:31:02;100033.31;;;27.46;63.50
2339;BME280;1180;51.438;6.978;2022-08-18T13:33:28;100039.44;;;27.47;61.85
2339;BME280;1180;51.438;6.978;2022-08-18T13:35:54;100040.81;;;27.49;60.51
2339;BME280;1180;51.438;6.978;2022-08-18T13:38:20;100036.91;;;27.06;60.46
2339;BME280;1180;51.438;6.978;2022-08-18T13:40:51;100033.06;;;26.55;62.55
2339;BME280;1180;51.438;6.978;2022-08-18T13:43:20;100015.75;;;25.92;63.81
2339;BME280;1180;51.438;6.978;2022-08-18T13:45:47;100008.22;;;25.82;65.06
2339;BME280;1180;51.438;6.978;2022-08-18T13:48:15;100008.41;;;25.80;65.60
2339;BME280;1180;51.438;6.978;2022-08-18T13:50:41;100017.06;;;26.23;66.39
2339;BME280;1180;51.438;6.978;2022-08-18T13:53:13;100015.03;;;26.72;63.99
2339;BME280;1180;51.438;6.978;2022-08-18T13:55:40;100014.03;;;26.93;63.07
2339;BME280;1180;51.438;6.978;2022-08-18T13:58:05;99999.34;;;27.31;60.74
2339;BME280;1180;51.438;6.978;2022-08-18T14:00:32;99999.72;;;27.35;60.52
2339;BME280;1180;51.438;6.978;2022-08-18T14:02:58;99994.53;;;27.21;60.32
2339;BME280;1180;51.438;6.978;2022-08-18T14:05:25;99988.28;;;27.61;60.42
2339;BME280;1180;51.438;6.978;2022-08-18T14:07:50;99994.19;;;27.50;59.81
2339;BME280;1180;51.438;6.978;2022-08-18T14:10:15;99987.50;;;27.61;58.82
2339;BME280;1180;51.438;6.978;2022-08-18T14:12:41;99982.44;;;27.59;57.68
2339;BME280;1180;51.438;6.978;2022-08-18T14:15:10;99967.69;;;27.38;58.43
2339;BME280;1180;51.438;6.978;2022-08-18T14:17:36;99965.56;;;27.67;58.22
2339;BME280;1180;51.438;6.978;2022-08-18T14:20:03;99969.13;;;27.79;58.34
2339;BME280;1180;51.438;6.978;2022-08-18T14:22:52;99972.03;;;27.71;58.32
2339;BME280;1180;51.438;6.978;2022-08-18T14:25:37;99975.78;;;27.89;56.64
2339;BME280;1180;51.438;6.978;2022-08-18T14:28:21;99981.59;;;27.97;55.52
2339;BME280;1180;51.438;6.978;2022-08-18T14:30:46;99979.69;;;28.11;56.59
2339;BME280;1180;51.438;6.978;2022-08-18T14:33:13;99988.59;;;28.10;54.67
2339;BME280;1180;51.438;6.978;2022-08-18T14:35:42;99984.00;;;27.67;54.20
2339;BME280;1180;51.438;6.978;2022-08-18T14:38:07;99983.63;;;27.63;54.35
2339;BME280;1180;51.438;6.978;2022-08-18T14:40:33;99978.06;;;27.78;55.73
2339;BME280;1180;51.438;6.978;2022-08-18T14:42:59;99978.88;;;28.18;54.68
2339;BME280;1180;51.438;6.978;2022-08-18T14:45:26;99978.44;;;28.46;54.23
2339;BME280;1180;51.438;6.978;2022-08-18T14:47:53;99972.41;;;28.07;55.29
2339;BME280;1180;51.438;6.978;2022-08-18T14:50:19;99971.63;;;28.32;54.81
2339;BME280;1180;51.438;6.978;2022-08-18T14:52:45;99974.47;;;28.81;54.11
2339;BME280;1180;51.438;6.978;2022-08-18T14:55:13;99979.78;;;29.00;51.96
2339;BME280;1180;51.438;6.978;2022-08-18T14:57:38;99983.91;;;28.70;51.54
2339;BME280;1180;51.438;6.978;2022-08-18T15:00:11;99981.91;;;28.65;51.97
2339;BME280;1180;51.438;6.978;2022-08-18T15:02:38;99983.72;;;29.09;52.53
2339;BME280;1180;51.438;6.978;2022-08-18T15:05:08;99972.53;;;29.63;51.47
2339;BME280;1180;51.438;6.978;2022-08-18T15:07:34;99974.63;;;30.03;51.26
2339;BME280;1180;51.438;6.978;2022-08-18T15:10:07;99978.09;;;30.39;49.15
2339;BME280;1180;51.438;6.978;2022-08-18T15:12:34;99978.59;;;30.72;48.93
2339;BME280;1180;51.438;6.978;2022-08-18T15:15:01;99979.00;;;30.93;48.98
2339;BME280;1180;51.438;6.978;2022-08-18T15:17:26;99971.97;;;30.98;48.23
2339;BME280;1180;51.438;6.978;2022-08-18T15:19:52;99970.56;;;31.20;47.96
2339;BME280;1180;51.438;6.978;2022-08-18T15:22:18;99961.72;;;31.43;48.15
2339;BME280;1180;51.438;6.978;2022-08-18T15:25:04;99957.41;;;30.84;45.47
2339;BME280;1180;51.438;6.978;2022-08-18T15:27:48;99953.81;;;30.43;46.05
2339;BME280;1180;51.438;6.978;2022-08-18T15:30:14;99966.63;;;30.69;46.06
2339;BME280;1180;51.438;6.978;2022-08-18T15:32:44;99968.81;;;30.61;46.96
2339;BME280;1180;51.438;6.978;2022-08-18T15:35:11;99961.53;;;30.44;47.77
2339;BME280;1180;51.438;6.978;2022-08-18T15:37:39;99963.72;;;30.59;47.14
2339;BME280;1180;51.438;6.978;2022-08-18T15:40:18;99965.34;;;30.84;47.17
2339;BME280;1180;51.438;6.978;2022-08-18T15:42:49;99962.72;;;31.13;49.02
2339;BME280;1180;51.438;6.978;2022-08-18T15:45:18;99961.56;;;31.21;47.53
2339;BME280;1180;51.438;6.978;2022-08-18T15:47:44;99970.25;;;31.45;48.52